sensor_id;sensor_type;location;lat;lon;timestamp;pressure;altitude;pressure_sealevel;temperature;humidity
20612;BME280;10465;42.686;23.364;2023-07-22T00:02:23;94871.72;;;28.13;47.72
20612;BME280;10465;42.686;23.364;2023-07-22T00:04:49;94937.84;;;28.53;48.13
20612;BME280;10465;42.686;23.364;2023-07-22T00:07:15;94924.38;;;28.46;48.25
20612;BME280;10465;42.686;23.364;2023-07-22T00:09:42;94938.19;;;28.55;48.43
20612;BME280;10465;42.686;23.364;2023-07-22T00:12:08;94910.91;;;28.35;48.01
20612;BME280;10465;42.686;23.364;2023-07-22T00:14:38;94947.75;;;28.63;48.09
20612;BME280;10465;42.686;23.364;2023-07-22T00:17:05;94944.25;;;28.63;48.26
20612;BME280;10465;42.686;23.364;2023-07-22T00:19:30;94945.78;;;28.64;48.55
20612;BME280;10465;42.686;23.364;2023-07-22T00:21:56;94939.56;;;28.63;48.56
20612;BME280;10465;42.686;23.364;2023-07-22T00:24:21;94915.38;;;28.49;49.05
20612;BME280;10465;42.686;23.364;2023-07-22T00:26:47;94929.19;;;28.58;49.12
20612;BME280;10465;42.686;23.364;2023-07-22T00:29:16;94929.69;;;28.53;49.11
20612;BME280;10465;42.686;23.364;2023-07-22T00:31:42;94889.50;;;28.17;49.32
20612;BME280;10465;42.686;23.364;2023-07-22T00:34:07;94919.59;;;28.30;49.91
20612;BME280;10465;42.686;23.364;2023-07-22T00:36:33;94940.00;;;28.42;50.15
20612;BME280;10465;42.686;23.364;2023-07-22T00:38:59;94943.16;;;28.40;50.71
20612;BME280;10465;42.686;23.364;2023-07-22T00:41:24;94945.50;;;28.38;50.93
20612;BME280;10465;42.686;23.364;2023-07-22T00:43:50;94932.75;;;28.31;51.00
20612;BME280;10465;42.686;23.364;2023-07-22T00:46:15;94926.91;;;28.13;51.38
20612;BME280;10465;42.686;23.364;2023-07-22T00:48:41;94916.50;;;28.08;51.60
20612;BME280;10465;42.686;23.364;2023-07-22T00:51:07;94951.66;;;28.19;51.85
20612;BME280;10465;42.686;23.364;2023-07-22T00:53:33;94943.72;;;28.08;51.95
20612;BME280;10465;42.686;23.364;2023-07-22T00:55:58;94961.84;;;28.15;52.19
20612;BME280;10465;42.686;23.364;2023-07-22T00:58:24;94939.69;;;27.93;53.24
20612;BME280;10465;42.686;23.364;2023-07-22T01:00:49;94958.38;;;27.91;53.63
20612;BME280;10465;42.686;23.364;2023-07-22T01:03:15;94955.78;;;27.83;54.02
20612;BME280;10465;42.686;23.364;2023-07-22T01:05:40;94950.03;;;27.78;54.31
20612;BME280;10465;42.686;23.364;2023-07-22T01:08:07;94936.88;;;27.73;54.53
20612;BME280;10465;42.686;23.364;2023-07-22T01:10:32;94930.50;;;27.59;54.63
20612;BME280;10465;42.686;23.364;2023-07-22T01:12:58;94936.53;;;27.71;54.56
20612;BME280;10465;42.686;23.364;2023-07-22T01:15:24;94906.91;;;27.53;54.70
20612;BME280;10465;42.686;23.364;2023-07-22T01:17:51;94916.53;;;27.57;54.64
20612;BME280;10465;42.686;23.364;2023-07-22T01:20:17;94942.50;;;27.62;55.44
20612;BME280;10465;42.686;23.364;2023-07-22T01:22:51;94943.72;;;27.57;55.76
20612;BME280;10465;42.686;23.364;2023-07-22T01:25:18;94928.06;;;27.42;55.73
20612;BME280;10465;42.686;23.364;2023-07-22T01:27:44;94936.47;;;27.51;55.84
20612;BME280;10465;42.686;23.364;2023-07-22T01:30:10;94919.13;;;27.41;55.65
20612;BME280;10465;42.686;23.364;2023-07-22T01:32:36;94931.09;;;27.47;54.98
20612;BME280;10465;42.686;23.364;2023-07-22T01:35:01;94918.38;;;27.41;53.75
20612;BME280;10465;42.686;23.364;2023-07-22T01:37:27;94895.41;;;27.18;52.82
20612;BME280;10465;42.686;23.364;2023-07-22T01:39:52;94898.19;;;27.15;52.35
20612;BME280;10465;42.686;23.364;2023-07-22T01:42:18;94925.16;;;27.29;51.43
20612;BME280;10465;42.686;23.364;2023-07-22T01:44:43;94920.53;;;27.26;54.24
20612;BME280;10465;42.686;23.364;2023-07-22T01:47:09;94926.81;;;27.23;53.88
20612;BME280;10465;42.686;23.364;2023-07-22T01:49:34;94923.19;;;27.29;53.87
20612;BME280;10465;42.686;23.364;2023-07-22T01:52:00;94914.69;;;27.27;53.99
20612;BME280;10465;42.686;23.364;2023-07-22T01:54:26;94911.59;;;27.25;53.83
20612;BME280;10465;42.686;23.364;2023-07-22T01:56:51;94912.03;;;27.24;54.17
20612;BME280;10465;42.686;23.364;2023-07-22T01:59:17;94912.88;;;27.17;55.11
20612;BME280;10465;42.686;23.364;2023-07-22T02:01:42;94882.16;;;26.93;55.26
20612;BME280;10465;42.686;23.364;2023-07-22T02:04:08;94901.13;;;26.97;55.16
20612;BME280;10465;42.686;23.364;2023-07-22T02:06:33;94907.66;;;27.03;55.45
20612;BME280;10465;42.686;23.364;2023-07-22T02:09:00;94885.44;;;26.81;55.77
20612;BME280;10465;42.686;23.364;2023-07-22T02:11:31;94910.47;;;26.96;55.68
20612;BME280;10465;42.686;23.364;2023-07-22T02:13:56;94865.16;;;26.62;56.08
20612;BME280;10465;42.686;23.364;2023-07-22T02:16:22;94912.16;;;26.86;56.13
20612;BME280;10465;42.686;23.364;2023-07-22T02:18:47;94895.94;;;26.79;56.49
20612;BME280;10465;42.686;23.364;2023-07-22T02:21:13;94910.19;;;26.86;57.27
20612;BME280;10465;42.686;23.364;2023-07-22T02:23:39;94907.56;;;26.79;58.18
20612;BME280;10465;42.686;23.364;2023-07-22T02:26:04;94914.59;;;26.77;58.38
20612;BME280;10465;42.686;23.364;2023-07-22T02:28:29;94918.03;;;26.81;58.75
20612;BME280;10465;42.686;23.364;2023-07-22T02:30:55;94913.47;;;26.74;59.27
20612;BME280;10465;42.686;23.364;2023-07-22T02:33:21;94917.75;;;26.72;59.67
20612;BME280;10465;42.686;23.364;2023-07-22T02:35:49;94921.44;;;26.58;60.27
20612;BME280;10465;42.686;23.364;2023-07-22T02:38:15;94931.88;;;26.59;60.48
20612;BME280;10465;42.686;23.364;2023-07-22T02:40:40;94919.09;;;26.56;60.65
20612;BME280;10465;42.686;23.364;2023-07-22T02:43:06;94896.13;;;26.30;60.77
20612;BME280;10465;42.686;23.364;2023-07-22T02:45:33;94904.19;;;26.37;60.96
20612;BME280;10465;42.686;23.364;2023-07-22T02:47:58;94921.09;;;26.52;61.27
20612;BME280;10465;42.686;23.364;2023-07-22T02:50:23;94924.22;;;26.51;61.46
20612;BME280;10465;42.686;23.364;2023-07-22T02:52:49;94904.97;;;26.38;61.68
20612;BME280;10465;42.686;23.364;2023-07-22T02:55:17;94911.47;;;26.44;61.81
20612;BME280;10465;42.686;23.364;2023-07-22T02:57:47;94917.25;;;26.50;61.67
20612;BME280;10465;42.686;23.364;2023-07-22T03:00:14;94926.13;;;26.54;62.08
20612;BME280;10465;42.686;23.364;2023-07-22T03:02:42;94917.34;;;26.39;62.03
20612;BME280;10465;42.686;23.364;2023-07-22T03:05:08;94931.63;;;26.47;62.47
20612;BME280;10465;42.686;23.364;2023-07-22T03:07:37;94930.13;;;26.42;62.53
20612;BME280;10465;42.686;23.364;2023-07-22T03:10:04;94908.28;;;26.19;62.77
20612;BME280;10465;42.686;23.364;2023-07-22T03:12:30;94931.69;;;26.39;62.93
20612;BME280;10465;42.686;23.364;2023-07-22T03:14:55;94911.25;;;26.28;63.10
20612;BME280;10465;42.686;23.364;2023-07-22T03:17:21;94923.66;;;26.29;63.23
20612;BME280;10465;42.686;23.364;2023-07-22T03:19:46;94934.41;;;26.39;63.21
20612;BME280;10465;42.686;23.364;2023-07-22T03:22:15;94933.22;;;26.41;63.41
20612;BME280;10465;42.686;23.364;2023-07-22T03:24:41;94934.41;;;26.39;63.29
20612;BME280;10465;42.686;23.364;2023-07-22T03:27:07;94919.38;;;26.31;63.33
20612;BME280;10465;42.686;23.364;2023-07-22T03:29:33;94910.94;;;26.22;63.98
20612;BME280;10465;42.686;23.364;2023-07-22T03:31:58;94868.38;;;25.81;64.06
20612;BME280;10465;42.686;23.364;2023-07-22T03:34:26;94941.59;;;26.19;64.79
20612;BME280;10465;42.686;23.364;2023-07-22T03:36:52;94905.91;;;25.83;65.15
20612;BME280;10465;42.686;23.364;2023-07-22T03:39:17;94950.97;;;26.11;65.38
20612;BME280;10465;42.686;23.364;2023-07-22T03:41:42;94950.59;;;26.09;65.37
20612;BME280;10465;42.686;23.364;2023-07-22T03:44:08;94895.94;;;25.69;65.38
20612;BME280;10465;42.686;23.364;2023-07-22T03:46:34;94948.25;;;26.11;65.09
20612;BME280;10465;42.686;23.364;2023-07-22T03:48:59;94940.19;;;26.04;65.29
20612;BME280;10465;42.686;23.364;2023-07-22T03:51:25;94958.06;;;26.01;65.38
20612;BME280;10465;42.686;23.364;2023-07-22T03:53:51;94940.38;;;25.86;65.27
20612;BME280;10465;42.686;23.364;2023-07-22T03:56:16;94939.50;;;25.93;65.83
20612;BME280;10465;42.686;23.364;2023-07-22T03:58:42;94979.25;;;26.13;65.65
20612;BME280;10465;42.686;23.364;2023-07-22T04:01:10;94981.97;;;26.13;65.71
20612;BME280;10465;42.686;23.364;2023-07-22T04:03:36;94978.56;;;26.02;65.79
20612;BME280;10465;42.686;23.364;2023-07-22T04:06:01;94951.66;;;25.81;65.95
20612;BME280;10465;42.686;23.364;2023-07-22T04:08:27;94973.94;;;25.99;65.89
20612;BME280;10465;42.686;23.364;2023-07-22T04:10:56;94980.03;;;26.14;67.14
20612;BME280;10465;42.686;23.364;2023-07-22T04:13:23;94981.19;;;26.13;66.51
20612;BME280;10465;42.686;23.364;2023-07-22T04:15:49;94983.78;;;26.24;66.34
20612;BME280;10465;42.686;23.364;2023-07-22T04:18:16;94976.03;;;26.26;66.18
20612;BME280;10465;42.686;23.364;2023-07-22T04:20:42;94981.75;;;26.35;65.75
20612;BME280;10465;42.686;23.364;2023-07-22T04:23:07;94972.84;;;26.34;64.78
20612;BME280;10465;42.686;23.364;2023-07-22T04:25:33;94978.63;;;26.36;63.12
20612;BME280;10465;42.686;23.364;2023-07-22T04:27:59;94987.94;;;26.35;63.00
20612;BME280;10465;42.686;23.364;2023-07-22T04:30:24;94972.56;;;26.25;62.46
20612;BME280;10465;42.686;23.364;2023-07-22T04:32:50;94991.06;;;26.34;61.93
20612;BME280;10465;42.686;23.364;2023-07-22T04:35:18;94999.53;;;26.39;61.60
20612;BME280;10465;42.686;23.364;2023-07-22T04:37:44;94993.38;;;26.35;61.24
20612;BME280;10465;42.686;23.364;2023-07-22T04:40:13;94957.19;;;26.08;61.41
20612;BME280;10465;42.686;23.364;2023-07-22T04:42:43;94996.78;;;26.43;61.19
20612;BME280;10465;42.686;23.364;2023-07-22T04:45:09;95007.63;;;26.47;61.15
20612;BME280;10465;42.686;23.364;2023-07-22T04:47:36;94987.88;;;26.46;62.16
20612;BME280;10465;42.686;23.364;2023-07-22T04:50:02;94998.25;;;26.55;61.68
20612;BME280;10465;42.686;23.364;2023-07-22T04:52:29;94993.50;;;26.62;61.12
20612;BME280;10465;42.686;23.364;2023-07-22T04:54:54;94996.84;;;26.74;60.41
20612;BME280;10465;42.686;23.364;2023-07-22T04:57:21;95001.09;;;26.78;59.82
20612;BME280;10465;42.686;23.364;2023-07-22T04:59:46;95009.53;;;26.84;59.88
20612;BME280;10465;42.686;23.364;2023-07-22T05:02:12;95007.53;;;26.92;59.83
20612;BME280;10465;42.686;23.364;2023-07-22T05:04:38;95008.28;;;26.92;59.97
20612;BME280;10465;42.686;23.364;2023-07-22T05:07:03;94989.38;;;26.81;60.16
20612;BME280;10465;42.686;23.364;2023-07-22T05:09:29;95019.84;;;27.00;60.40
20612;BME280;10465;42.686;23.364;2023-07-22T05:11:55;95019.03;;;27.03;60.51
20612;BME280;10465;42.686;23.364;2023-07-22T05:14:20;95018.66;;;27.01;60.50
20612;BME280;10465;42.686;23.364;2023-07-22T05:16:46;95017.44;;;27.05;59.99
20612;BME280;10465;42.686;23.364;2023-07-22T05:19:11;95013.94;;;27.05;59.56
20612;BME280;10465;42.686;23.364;2023-07-22T05:21:36;95013.59;;;27.03;59.34
20612;BME280;10465;42.686;23.364;2023-07-22T05:24:02;95020.91;;;27.06;59.29
20612;BME280;10465;42.686;23.364;2023-07-22T05:26:28;95023.28;;;27.04;59.68
20612;BME280;10465;42.686;23.364;2023-07-22T05:28:53;94974.88;;;26.61;60.73
20612;BME280;10465;42.686;23.364;2023-07-22T05:31:19;95025.63;;;27.02;61.18
20612;BME280;10465;42.686;23.364;2023-07-22T05:33:44;95020.25;;;26.98;60.78
20612;BME280;10465;42.686;23.364;2023-07-22T05:36:10;95015.13;;;27.04;60.58
20612;BME280;10465;42.686;23.364;2023-07-22T05:38:35;95025.91;;;27.15;60.41
20612;BME280;10465;42.686;23.364;2023-07-22T05:41:01;95008.13;;;27.06;60.42
20612;BME280;10465;42.686;23.364;2023-07-22T05:43:26;95024.97;;;27.25;60.32
20612;BME280;10465;42.686;23.364;2023-07-22T05:45:52;95026.78;;;27.35;60.29
20612;BME280;10465;42.686;23.364;2023-07-22T05:48:18;95003.59;;;27.27;60.00
20612;BME280;10465;42.686;23.364;2023-07-22T05:50:43;94967.00;;;27.04;60.04
20612;BME280;10465;42.686;23.364;2023-07-22T05:53:09;95022.06;;;27.39;59.78
20612;BME280;10465;42.686;23.364;2023-07-22T05:55:34;95023.56;;;27.44;60.01
20612;BME280;10465;42.686;23.364;2023-07-22T05:58:02;95000.44;;;27.32;59.55
20612;BME280;10465;42.686;23.364;2023-07-22T06:00:31;95028.50;;;27.52;60.09
20612;BME280;10465;42.686;23.364;2023-07-22T06:02:56;95023.00;;;27.56;60.66
20612;BME280;10465;42.686;23.364;2023-07-22T06:05:22;95013.75;;;27.50;60.75
20612;BME280;10465;42.686;23.364;2023-07-22T06:07:47;95034.06;;;27.69;59.41
20612;BME280;10465;42.686;23.364;2023-07-22T06:10:13;94993.00;;;27.36;59.16
20612;BME280;10465;42.686;23.364;2023-07-22T06:12:38;95044.84;;;27.79;58.75
20612;BME280;10465;42.686;23.364;2023-07-22T06:15:04;95058.44;;;27.79;58.68
20612;BME280;10465;42.686;23.364;2023-07-22T06:17:30;95047.69;;;27.69;58.58
20612;BME280;10465;42.686;23.364;2023-07-22T06:19:56;95057.25;;;27.80;59.22
20612;BME280;10465;42.686;23.364;2023-07-22T06:22:21;95062.94;;;27.90;59.38
20612;BME280;10465;42.686;23.364;2023-07-22T06:24:46;95065.94;;;27.95;59.27
20612;BME280;10465;42.686;23.364;2023-07-22T06:27:12;95065.19;;;27.95;59.11
20612;BME280;10465;42.686;23.364;2023-07-22T06:29:38;95054.81;;;27.86;59.04
20612;BME280;10465;42.686;23.364;2023-07-22T06:32:03;95058.41;;;28.06;58.63
20612;BME280;10465;42.686;23.364;2023-07-22T06:34:29;95066.97;;;28.05;58.50
20612;BME280;10465;42.686;23.364;2023-07-22T06:36:54;95072.00;;;28.06;58.49
20612;BME280;10465;42.686;23.364;2023-07-22T06:39:20;95033.53;;;27.81;59.07
20612;BME280;10465;42.686;23.364;2023-07-22T06:41:45;95039.75;;;27.81;60.85
20612;BME280;10465;42.686;23.364;2023-07-22T06:44:10;95071.56;;;28.12;60.32
20612;BME280;10465;42.686;23.364;2023-07-22T06:46:36;95068.75;;;28.15;59.27
20612;BME280;10465;42.686;23.364;2023-07-22T06:49:01;95075.31;;;28.18;59.35
20612;BME280;10465;42.686;23.364;2023-07-22T06:51:28;95052.56;;;28.08;60.02
20612;BME280;10465;42.686;23.364;2023-07-22T06:53:55;95073.91;;;28.33;60.18
20612;BME280;10465;42.686;23.364;2023-07-22T06:56:20;95040.66;;;28.22;59.13
20612;BME280;10465;42.686;23.364;2023-07-22T06:58:45;95060.63;;;28.39;58.89
20612;BME280;10465;42.686;23.364;2023-07-22T07:01:12;94993.16;;;28.03;58.16
20612;BME280;10465;42.686;23.364;2023-07-22T07:03:38;95056.59;;;28.47;58.58
20612;BME280;10465;42.686;23.364;2023-07-22T07:06:03;95039.72;;;28.32;58.91
20612;BME280;10465;42.686;23.364;2023-07-22T07:08:29;95068.19;;;28.51;59.34
20612;BME280;10465;42.686;23.364;2023-07-22T07:10:54;95039.22;;;28.41;59.26
20612;BME280;10465;42.686;23.364;2023-07-22T07:13:19;95051.34;;;28.56;58.15
20612;BME280;10465;42.686;23.364;2023-07-22T07:15:48;95046.78;;;28.53;56.60
20612;BME280;10465;42.686;23.364;2023-07-22T07:18:16;95044.50;;;28.48;57.15
20612;BME280;10465;42.686;23.364;2023-07-22T07:20:43;95044.09;;;28.49;58.37
20612;BME280;10465;42.686;23.364;2023-07-22T07:23:08;95049.28;;;28.64;58.65
20612;BME280;10465;42.686;23.364;2023-07-22T07:25:34;95054.53;;;28.74;57.88
20612;BME280;10465;42.686;23.364;2023-07-22T07:28:00;95045.03;;;28.82;57.40
20612;BME280;10465;42.686;23.364;2023-07-22T07:30:25;95019.13;;;28.74;57.00
20612;BME280;10465;42.686;23.364;2023-07-22T07:32:51;95037.78;;;28.96;56.22
20612;BME280;10465;42.686;23.364;2023-07-22T07:35:16;95009.81;;;28.72;56.20
20612;BME280;10465;42.686;23.364;2023-07-22T07:37:41;95040.06;;;29.01;56.92
20612;BME280;10465;42.686;23.364;2023-07-22T07:40:07;95003.34;;;28.86;57.39
20612;BME280;10465;42.686;23.364;2023-07-22T07:42:33;95000.50;;;28.93;57.85
20612;BME280;10465;42.686;23.364;2023-07-22T07:44:59;94985.53;;;28.81;57.24
20612;BME280;10465;42.686;23.364;2023-07-22T07:47:24;95038.41;;;29.23;54.84
20612;BME280;10465;42.686;23.364;2023-07-22T07:49:50;95034.50;;;29.24;55.15
20612;BME280;10465;42.686;23.364;2023-07-22T07:52:15;95019.06;;;29.18;55.59
20612;BME280;10465;42.686;23.364;2023-07-22T07:54:41;95038.47;;;29.40;54.29
20612;BME280;10465;42.686;23.364;2023-07-22T07:57:06;95024.50;;;29.38;54.13
20612;BME280;10465;42.686;23.364;2023-07-22T07:59:31;95021.59;;;29.45;54.36
20612;BME280;10465;42.686;23.364;2023-07-22T08:01:57;95026.91;;;29.52;53.69
20612;BME280;10465;42.686;23.364;2023-07-22T08:04:22;95009.16;;;29.44;54.84
20612;BME280;10465;42.686;23.364;2023-07-22T08:06:48;95026.78;;;29.59;54.17
20612;BME280;10465;42.686;23.364;2023-07-22T08:09:14;95028.16;;;29.67;54.16
20612;BME280;10465;42.686;23.364;2023-07-22T08:11:44;94984.78;;;29.53;53.41
20612;BME280;10465;42.686;23.364;2023-07-22T08:14:09;95027.41;;;29.83;51.86
20612;BME280;10465;42.686;23.364;2023-07-22T08:16:35;95019.53;;;29.85;51.10
20612;BME280;10465;42.686;23.364;2023-07-22T08:19:01;95010.34;;;29.79;50.74
20612;BME280;10465;42.686;23.364;2023-07-22T08:21:26;95027.81;;;29.81;51.28
20612;BME280;10465;42.686;23.364;2023-07-22T08:23:51;95014.28;;;29.78;51.66
20612;BME280;10465;42.686;23.364;2023-07-22T08:26:17;94977.69;;;29.59;51.37
20612;BME280;10465;42.686;23.364;2023-07-22T08:28:46;95025.88;;;29.98;51.85
20612;BME280;10465;42.686;23.364;2023-07-22T08:31:12;95028.69;;;30.11;51.98
20612;BME280;10465;42.686;23.364;2023-07-22T08:33:37;95026.50;;;30.22;51.63
20612;BME280;10465;42.686;23.364;2023-07-22T08:36:03;95019.75;;;30.27;50.22
20612;BME280;10465;42.686;23.364;2023-07-22T08:38:28;95021.09;;;30.35;49.77
20612;BME280;10465;42.686;23.364;2023-07-22T08:40:54;94980.56;;;30.17;49.91
20612;BME280;10465;42.686;23.364;2023-07-22T08:43:21;94984.28;;;30.40;49.09
20612;BME280;10465;42.686;23.364;2023-07-22T08:45:48;95001.31;;;30.60;49.30
20612;BME280;10465;42.686;23.364;2023-07-22T08:48:16;94997.50;;;30.70;49.97
20612;BME280;10465;42.686;23.364;2023-07-22T08:50:54;94975.22;;;30.72;49.40
20612;BME280;10465;42.686;23.364;2023-07-22T08:53:21;94980.97;;;30.90;49.12
20612;BME280;10465;42.686;23.364;2023-07-22T08:55:50;94978.06;;;30.97;48.91
20612;BME280;10465;42.686;23.364;2023-07-22T08:58:16;94978.63;;;31.05;48.58
20612;BME280;10465;42.686;23.364;2023-07-22T09:00:42;94967.91;;;31.11;48.86
20612;BME280;10465;42.686;23.364;2023-07-22T09:03:09;94969.22;;;31.19;48.17
20612;BME280;10465;42.686;23.364;2023-07-22T09:05:35;94968.13;;;31.16;47.96
20612;BME280;10465;42.686;23.364;2023-07-22T09:08:03;94972.31;;;31.34;47.40
20612;BME280;10465;42.686;23.364;2023-07-22T09:10:29;94928.00;;;31.13;46.26
20612;BME280;10465;42.686;23.364;2023-07-22T09:12:56;94972.53;;;31.39;46.43
20612;BME280;10465;42.686;23.364;2023-07-22T09:15:22;94965.44;;;31.42;46.94
20612;BME280;10465;42.686;23.364;2023-07-22T09:17:48;94979.97;;;31.51;47.64
20612;BME280;10465;42.686;23.364;2023-07-22T09:20:14;94964.34;;;31.52;47.73
20612;BME280;10465;42.686;23.364;2023-07-22T09:22:44;94954.06;;;31.56;48.17
20612;BME280;10465;42.686;23.364;2023-07-22T09:25:14;94961.69;;;31.74;47.11
20612;BME280;10465;42.686;23.364;2023-07-22T09:27:40;94946.03;;;31.74;47.16
20612;BME280;10465;42.686;23.364;2023-07-22T09:32:47;94939.03;;;31.86;46.38
20612;BME280;10465;42.686;23.364;2023-07-22T09:35:13;94959.56;;;32.04;47.21
20612;BME280;10465;42.686;23.364;2023-07-22T09:37:39;94935.16;;;31.96;46.87
20612;BME280;10465;42.686;23.364;2023-07-22T09:40:19;94955.34;;;32.24;46.22
20612;BME280;10465;42.686;23.364;2023-07-22T09:42:47;94865.47;;;31.75;44.60
20612;BME280;10465;42.686;23.364;2023-07-22T09:45:13;94931.22;;;32.32;43.54
20612;BME280;10465;42.686;23.364;2023-07-22T09:47:43;94941.09;;;32.42;43.84
20612;BME280;10465;42.686;23.364;2023-07-22T09:50:26;94942.34;;;32.51;43.56
20612;BME280;10465;42.686;23.364;2023-07-22T09:52:57;94936.00;;;32.54;43.42
20612;BME280;10465;42.686;23.364;2023-07-22T09:55:25;94939.72;;;32.69;42.41
20612;BME280;10465;42.686;23.364;2023-07-22T09:57:54;94937.47;;;32.45;42.22
20612;BME280;10465;42.686;23.364;2023-07-22T10:00:20;94932.78;;;32.33;42.57
20612;BME280;10465;42.686;23.364;2023-07-22T10:02:47;94930.69;;;32.24;42.04
20612;BME280;10465;42.686;23.364;2023-07-22T10:05:18;94917.31;;;32.39;42.90
20612;BME280;10465;42.686;23.364;2023-07-22T10:07:49;94879.25;;;32.19;42.94
20612;BME280;10465;42.686;23.364;2023-07-22T10:10:18;94932.31;;;32.69;42.13
20612;BME280;10465;42.686;23.364;2023-07-22T10:12:44;94921.06;;;32.77;41.20
20612;BME280;10465;42.686;23.364;2023-07-22T10:15:11;94908.47;;;32.88;41.05
20612;BME280;10465;42.686;23.364;2023-07-22T10:17:37;94883.63;;;32.83;40.85
20612;BME280;10465;42.686;23.364;2023-07-22T10:20:03;94928.19;;;33.27;41.14
20612;BME280;10465;42.686;23.364;2023-07-22T10:22:34;94913.75;;;33.36;40.44
20612;BME280;10465;42.686;23.364;2023-07-22T10:25:05;94912.25;;;33.44;39.17
20612;BME280;10465;42.686;23.364;2023-07-22T10:27:32;94915.66;;;33.57;39.61
20612;BME280;10465;42.686;23.364;2023-07-22T10:29:59;94904.88;;;33.63;38.78
20612;BME280;10465;42.686;23.364;2023-07-22T10:32:24;94902.13;;;33.72;38.98
20612;BME280;10465;42.686;23.364;2023-07-22T10:34:50;94901.22;;;33.75;37.47
20612;BME280;10465;42.686;23.364;2023-07-22T10:37:18;94908.72;;;33.84;37.96
20612;BME280;10465;42.686;23.364;2023-07-22T10:39:44;94906.13;;;33.89;37.80
20612;BME280;10465;42.686;23.364;2023-07-22T10:42:24;94903.25;;;34.02;37.51
20612;BME280;10465;42.686;23.364;2023-07-22T10:44:50;94899.44;;;34.18;36.31
20612;BME280;10465;42.686;23.364;2023-07-22T10:47:31;94900.22;;;34.28;34.09
20612;BME280;10465;42.686;23.364;2023-07-22T10:50:05;94900.22;;;34.37;34.07
20612;BME280;10465;42.686;23.364;2023-07-22T10:52:43;94902.06;;;34.40;33.91
20612;BME280;10465;42.686;23.364;2023-07-22T10:55:17;94886.16;;;34.35;32.48
20612;BME280;10465;42.686;23.364;2023-07-22T10:57:54;94907.56;;;34.40;32.58
20612;BME280;10465;42.686;23.364;2023-07-22T11:00:21;94888.75;;;34.38;32.41
20612;BME280;10465;42.686;23.364;2023-07-22T11:03:13;94905.25;;;34.57;32.59
20612;BME280;10465;42.686;23.364;2023-07-22T11:08:35;94882.34;;;34.69;32.32
20612;BME280;10465;42.686;23.364;2023-07-22T11:11:03;94856.06;;;34.59;32.45
20612;BME280;10465;42.686;23.364;2023-07-22T11:13:29;94842.94;;;34.63;32.31
20612;BME280;10465;42.686;23.364;2023-07-22T11:15:58;94890.50;;;34.97;31.96
20612;BME280;10465;42.686;23.364;2023-07-22T11:18:36;94882.72;;;34.95;31.17
20612;BME280;10465;42.686;23.364;2023-07-22T11:21:02;94867.13;;;34.92;31.54
20612;BME280;10465;42.686;23.364;2023-07-22T11:23:27;94847.16;;;34.82;31.66
20612;BME280;10465;42.686;23.364;2023-07-22T11:25:53;94855.50;;;34.97;31.69
20612;BME280;10465;42.686;23.364;2023-07-22T11:28:19;94878.06;;;35.20;31.42
20612;BME280;10465;42.686;23.364;2023-07-22T11:30:44;94872.81;;;35.31;31.32
20612;BME280;10465;42.686;23.364;2023-07-22T11:33:09;94837.13;;;35.12;31.50
20612;BME280;10465;42.686;23.364;2023-07-22T11:35:35;94870.31;;;35.42;31.23
20612;BME280;10465;42.686;23.364;2023-07-22T11:38:02;94828.28;;;35.41;30.55
20612;BME280;10465;42.686;23.364;2023-07-22T11:40:34;94846.78;;;35.65;31.13
20612;BME280;10465;42.686;23.364;2023-07-22T11:43:00;94847.38;;;35.69;30.95
20612;BME280;10465;42.686;23.364;2023-07-22T11:45:25;94855.47;;;35.73;30.74
20612;BME280;10465;42.686;23.364;2023-07-22T11:47:51;94853.59;;;35.79;30.67
20612;BME280;10465;42.686;23.364;2023-07-22T11:50:16;94837.41;;;35.72;30.11
20612;BME280;10465;42.686;23.364;2023-07-22T11:52:41;94811.00;;;35.65;29.81
20612;BME280;10465;42.686;23.364;2023-07-22T11:55:07;94843.09;;;35.92;29.98
20612;BME280;10465;42.686;23.364;2023-07-22T11:57:32;94849.94;;;35.97;29.82
20612;BME280;10465;42.686;23.364;2023-07-22T11:59:58;94836.41;;;36.08;30.19
20612;BME280;10465;42.686;23.364;2023-07-22T12:02:25;94835.16;;;36.09;29.85
20612;BME280;10465;42.686;23.364;2023-07-22T12:04:57;94847.16;;;36.21;29.65
20612;BME280;10465;42.686;23.364;2023-07-22T12:07:32;94831.19;;;36.25;29.97
20612;BME280;10465;42.686;23.364;2023-07-22T12:10:00;94848.22;;;36.23;29.52
20612;BME280;10465;42.686;23.364;2023-07-22T12:12:55;94841.66;;;36.21;29.49
20612;BME280;10465;42.686;23.364;2023-07-22T12:15:25;94838.31;;;36.17;29.70
20612;BME280;10465;42.686;23.364;2023-07-22T12:17:54;94832.31;;;36.03;30.04
20612;BME280;10465;42.686;23.364;2023-07-22T12:20:24;94832.31;;;36.03;30.02
20612;BME280;10465;42.686;23.364;2023-07-22T12:22:51;94812.28;;;36.03;29.86
20612;BME280;10465;42.686;23.364;2023-07-22T12:25:17;94832.91;;;36.22;30.06
20612;BME280;10465;42.686;23.364;2023-07-22T12:27:43;94793.75;;;36.03;30.11
20612;BME280;10465;42.686;23.364;2023-07-22T12:30:09;94819.78;;;36.17;29.89
20612;BME280;10465;42.686;23.364;2023-07-22T12:32:35;94831.78;;;36.29;30.21
20612;BME280;10465;42.686;23.364;2023-07-22T12:35:00;94784.06;;;36.08;30.27
20612;BME280;10465;42.686;23.364;2023-07-22T12:37:28;94797.25;;;36.04;30.58
20612;BME280;10465;42.686;23.364;2023-07-22T12:39:53;94820.34;;;36.06;30.66
20612;BME280;10465;42.686;23.364;2023-07-22T12:42:19;94785.50;;;35.79;30.82
20612;BME280;10465;42.686;23.364;2023-07-22T12:44:44;94812.38;;;35.84;30.50
20612;BME280;10465;42.686;23.364;2023-07-22T12:47:10;94810.22;;;35.88;30.78
20612;BME280;10465;42.686;23.364;2023-07-22T12:49:36;94797.59;;;35.82;30.54
20612;BME280;10465;42.686;23.364;2023-07-22T12:52:02;94762.41;;;35.77;30.39
20612;BME280;10465;42.686;23.364;2023-07-22T12:54:30;94805.56;;;36.19;29.92